sensor_id;sensor_type;location;lat;lon;timestamp;temperature;humidity
35563;DHT22;21665;40.108;18.302;2023-12-07T00:01:16;9.80;99.90
35563;DHT22;21665;40.108;18.302;2023-12-07T00:11:18;9.80;99.90
35563;DHT22;21665;40.108;18.302;2023-12-07T00:13:44;9.80;99.90
35563;DHT22;21665;40.108;18.302;2023-12-07T00:16:11;9.80;99.90
35563;DHT22;21665;40.108;18.302;2023-12-07T00:18:37;9.80;99.90
35563;DHT22;21665;40.108;18.302;2023-12-07T00:21:04;9.90;99.90
35563;DHT22;21665;40.108;18.302;2023-12-07T00:23:30;9.90;99.90
35563;DHT22;21665;40.108;18.302;2023-12-07T00:25:56;9.90;99.90
35563;DHT22;21665;40.108;18.302;2023-12-07T00:28:24;10.00;99.90
35563;DHT22;21665;40.108;18.302;2023-12-07T00:30:50;10.00;99.90
35563;DHT22;21665;40.108;18.302;2023-12-07T00:33:17;9.90;99.90
35563;DHT22;21665;40.108;18.302;2023-12-07T00:35:43;10.00;99.90
35563;DHT22;21665;40.108;18.302;2023-12-07T00:38:09;10.00;99.90
35563;DHT22;21665;40.108;18.302;2023-12-07T00:40:39;10.10;99.90
35563;DHT22;21665;40.108;18.302;2023-12-07T00:43:06;10.10;99.90
35563;DHT22;21665;40.108;18.302;2023-12-07T00:45:33;10.10;99.90
35563;DHT22;21665;40.108;18.302;2023-12-07T00:47:59;10.10;99.90
35563;DHT22;21665;40.108;18.302;2023-12-07T00:50:26;10.10;99.90
35563;DHT22;21665;40.108;18.302;2023-12-07T00:52:56;10.10;99.90
35563;DHT22;21665;40.108;18.302;2023-12-07T00:55:22;10.10;99.90
35563;DHT22;21665;40.108;18.302;2023-12-07T00:57:48;10.10;99.90
35563;DHT22;21665;40.108;18.302;2023-12-07T01:00:15;10.10;99.90
35563;DHT22;21665;40.108;18.302;2023-12-07T01:02:42;10.10;99.90
35563;DHT22;21665;40.108;18.302;2023-12-07T01:05:08;10.10;99.90
35563;DHT22;21665;40.108;18.302;2023-12-07T01:07:34;10.10;99.90
35563;DHT22;21665;40.108;18.302;2023-12-07T01:10:00;10.10;99.90
35563;DHT22;21665;40.108;18.302;2023-12-07T01:12:27;10.00;99.90
35563;DHT22;21665;40.108;18.302;2023-12-07T01:14:53;10.00;99.90
35563;DHT22;21665;40.108;18.302;2023-12-07T01:17:19;10.00;99.90
35563;DHT22;21665;40.108;18.302;2023-12-07T01:19:45;10.00;99.90
35563;DHT22;21665;40.108;18.302;2023-12-07T01:22:12;10.10;99.90
35563;DHT22;21665;40.108;18.302;2023-12-07T01:24:39;10.10;99.90
35563;DHT22;21665;40.108;18.302;2023-12-07T01:27:05;10.10;99.90
35563;DHT22;21665;40.108;18.302;2023-12-07T01:29:38;10.10;99.90
35563;DHT22;21665;40.108;18.302;2023-12-07T01:32:04;10.10;99.90
35563;DHT22;21665;40.108;18.302;2023-12-07T01:34:31;10.10;99.90
35563;DHT22;21665;40.108;18.302;2023-12-07T01:36:58;10.00;99.90
35563;DHT22;21665;40.108;18.302;2023-12-07T01:39:25;10.10;99.90
35563;DHT22;21665;40.108;18.302;2023-12-07T01:41:51;10.10;99.90
35563;DHT22;21665;40.108;18.302;2023-12-07T01:44:18;10.10;99.90
35563;DHT22;21665;40.108;18.302;2023-12-07T01:46:44;10.10;99.90
35563;DHT22;21665;40.108;18.302;2023-12-07T01:49:10;10.10;99.90
35563;DHT22;21665;40.108;18.302;2023-12-07T01:51:37;10.10;99.90
35563;DHT22;21665;40.108;18.302;2023-12-07T01:54:04;10.10;99.90
35563;DHT22;21665;40.108;18.302;2023-12-07T01:56:33;10.20;99.90
35563;DHT22;21665;40.108;18.302;2023-12-07T01:59:00;10.20;99.90
35563;DHT22;21665;40.108;18.302;2023-12-07T02:01:27;10.20;99.90
35563;DHT22;21665;40.108;18.302;2023-12-07T02:03:53;10.20;99.90
35563;DHT22;21665;40.108;18.302;2023-12-07T02:06:20;10.30;99.90
35563;DHT22;21665;40.108;18.302;2023-12-07T02:08:46;10.20;99.90
35563;DHT22;21665;40.108;18.302;2023-12-07T02:11:13;10.20;99.90
35563;DHT22;21665;40.108;18.302;2023-12-07T02:13:40;10.10;99.90
35563;DHT22;21665;40.108;18.302;2023-12-07T02:16:20;10.10;99.90
35563;DHT22;21665;40.108;18.302;2023-12-07T02:21:59;10.00;99.90
35563;DHT22;21665;40.108;18.302;2023-12-07T02:24:33;10.10;99.90
35563;DHT22;21665;40.108;18.302;2023-12-07T02:27:00;10.10;99.90
35563;DHT22;21665;40.108;18.302;2023-12-07T02:29:26;10.00;99.90
35563;DHT22;21665;40.108;18.302;2023-12-07T02:31:52;10.00;99.90
35563;DHT22;21665;40.108;18.302;2023-12-07T02:34:19;9.90;99.90
35563;DHT22;21665;40.108;18.302;2023-12-07T02:36:46;9.90;99.90
35563;DHT22;21665;40.108;18.302;2023-12-07T02:39:14;9.90;99.90
35563;DHT22;21665;40.108;18.302;2023-12-07T02:41:41;10.00;99.90
35563;DHT22;21665;40.108;18.302;2023-12-07T02:44:09;10.00;99.90
35563;DHT22;21665;40.108;18.302;2023-12-07T02:46:35;9.90;99.90
35563;DHT22;21665;40.108;18.302;2023-12-07T02:49:01;9.90;99.90
35563;DHT22;21665;40.108;18.302;2023-12-07T02:51:28;9.90;99.90
35563;DHT22;21665;40.108;18.302;2023-12-07T02:53:54;9.90;99.90
35563;DHT22;21665;40.108;18.302;2023-12-07T02:56:20;9.80;99.90
35563;DHT22;21665;40.108;18.302;2023-12-07T02:58:47;9.80;99.90
35563;DHT22;21665;40.108;18.302;2023-12-07T03:01:13;9.80;99.90
35563;DHT22;21665;40.108;18.302;2023-12-07T03:03:39;9.80;99.90
35563;DHT22;21665;40.108;18.302;2023-12-07T03:06:08;9.80;99.90
35563;DHT22;21665;40.108;18.302;2023-12-07T03:08:34;9.80;99.90
35563;DHT22;21665;40.108;18.302;2023-12-07T03:11:00;9.80;99.90
35563;DHT22;21665;40.108;18.302;2023-12-07T03:13:27;9.80;99.90
35563;DHT22;21665;40.108;18.302;2023-12-07T03:15:53;9.80;99.90
35563;DHT22;21665;40.108;18.302;2023-12-07T03:18:19;9.80;99.90
35563;DHT22;21665;40.108;18.302;2023-12-07T03:20:46;9.80;99.90
35563;DHT22;21665;40.108;18.302;2023-12-07T03:23:12;9.80;99.90
35563;DHT22;21665;40.108;18.302;2023-12-07T03:25:38;9.80;99.90
35563;DHT22;21665;40.108;18.302;2023-12-07T03:28:04;9.70;99.90
35563;DHT22;21665;40.108;18.302;2023-12-07T03:30:31;9.70;99.90
35563;DHT22;21665;40.108;18.302;2023-12-07T03:32:57;9.70;99.90
35563;DHT22;21665;40.108;18.302;2023-12-07T03:35:24;9.70;99.90
35563;DHT22;21665;40.108;18.302;2023-12-07T03:37:50;9.70;99.90
35563;DHT22;21665;40.108;18.302;2023-12-07T03:40:16;9.60;99.90
35563;DHT22;21665;40.108;18.302;2023-12-07T03:42:49;9.60;99.90
35563;DHT22;21665;40.108;18.302;2023-12-07T03:45:15;9.60;99.90
35563;DHT22;21665;40.108;18.302;2023-12-07T03:47:42;9.60;99.90
35563;DHT22;21665;40.108;18.302;2023-12-07T03:50:08;9.50;99.90
35563;DHT22;21665;40.108;18.302;2023-12-07T03:52:35;9.50;99.90
35563;DHT22;21665;40.108;18.302;2023-12-07T03:55:01;9.50;99.90
35563;DHT22;21665;40.108;18.302;2023-12-07T03:57:27;9.50;99.90
35563;DHT22;21665;40.108;18.302;2023-12-07T03:59:54;9.50;99.90
35563;DHT22;21665;40.108;18.302;2023-12-07T04:02:20;9.50;99.90
35563;DHT22;21665;40.108;18.302;2023-12-07T04:04:47;9.40;99.90
35563;DHT22;21665;40.108;18.302;2023-12-07T04:07:13;9.40;99.90
35563;DHT22;21665;40.108;18.302;2023-12-07T04:09:40;9.40;99.90
35563;DHT22;21665;40.108;18.302;2023-12-07T04:12:06;9.40;99.90
35563;DHT22;21665;40.108;18.302;2023-12-07T04:14:33;9.30;99.90
35563;DHT22;21665;40.108;18.302;2023-12-07T04:16:59;9.20;99.90
35563;DHT22;21665;40.108;18.302;2023-12-07T04:19:25;9.30;99.90
35563;DHT22;21665;40.108;18.302;2023-12-07T04:21:51;9.20;99.90
35563;DHT22;21665;40.108;18.302;2023-12-07T04:24:17;9.20;99.90
35563;DHT22;21665;40.108;18.302;2023-12-07T04:26:44;9.20;99.90
35563;DHT22;21665;40.108;18.302;2023-12-07T04:29:10;9.10;99.90
35563;DHT22;21665;40.108;18.302;2023-12-07T04:31:37;9.10;99.90
35563;DHT22;21665;40.108;18.302;2023-12-07T04:34:03;9.10;99.90
35563;DHT22;21665;40.108;18.302;2023-12-07T04:36:29;9.10;99.90
35563;DHT22;21665;40.108;18.302;2023-12-07T04:38:55;9.10;99.90
35563;DHT22;21665;40.108;18.302;2023-12-07T04:41:22;9.10;99.90
35563;DHT22;21665;40.108;18.302;2023-12-07T04:43:48;9.10;99.90
35563;DHT22;21665;40.108;18.302;2023-12-07T04:46:14;9.10;99.90
35563;DHT22;21665;40.108;18.302;2023-12-07T04:48:41;9.10;99.90
35563;DHT22;21665;40.108;18.302;2023-12-07T04:51:07;9.10;99.90
35563;DHT22;21665;40.108;18.302;2023-12-07T04:53:33;9.00;99.90
35563;DHT22;21665;40.108;18.302;2023-12-07T04:56:00;9.00;99.90
35563;DHT22;21665;40.108;18.302;2023-12-07T04:58:26;9.00;99.90
35563;DHT22;21665;40.108;18.302;2023-12-07T05:00:53;9.00;99.90
35563;DHT22;21665;40.108;18.302;2023-12-07T05:03:19;8.90;99.90
35563;DHT22;21665;40.108;18.302;2023-12-07T05:05:45;8.90;99.90
35563;DHT22;21665;40.108;18.302;2023-12-07T05:08:12;8.90;99.90
35563;DHT22;21665;40.108;18.302;2023-12-07T05:10:38;8.80;99.90
35563;DHT22;21665;40.108;18.302;2023-12-07T05:13:04;8.80;99.90
35563;DHT22;21665;40.108;18.302;2023-12-07T05:15:30;8.80;99.90
35563;DHT22;21665;40.108;18.302;2023-12-07T05:17:57;8.80;99.90
35563;DHT22;21665;40.108;18.302;2023-12-07T05:20:23;8.80;99.90
35563;DHT22;21665;40.108;18.302;2023-12-07T05:22:50;8.70;99.90
35563;DHT22;21665;40.108;18.302;2023-12-07T05:25:16;8.70;99.90
35563;DHT22;21665;40.108;18.302;2023-12-07T05:27:43;8.70;99.90
35563;DHT22;21665;40.108;18.302;2023-12-07T05:30:09;8.70;99.90
35563;DHT22;21665;40.108;18.302;2023-12-07T05:32:39;8.60;99.90
35563;DHT22;21665;40.108;18.302;2023-12-07T05:35:06;8.60;99.90
35563;DHT22;21665;40.108;18.302;2023-12-07T05:37:33;8.50;99.90
35563;DHT22;21665;40.108;18.302;2023-12-07T05:39:59;8.50;99.90
35563;DHT22;21665;40.108;18.302;2023-12-07T05:42:25;8.50;99.90
35563;DHT22;21665;40.108;18.302;2023-12-07T05:44:52;8.40;99.90
35563;DHT22;21665;40.108;18.302;2023-12-07T05:47:18;8.40;99.90
35563;DHT22;21665;40.108;18.302;2023-12-07T05:49:44;8.40;99.90
35563;DHT22;21665;40.108;18.302;2023-12-07T05:52:10;8.30;99.90
35563;DHT22;21665;40.108;18.302;2023-12-07T05:54:38;8.30;99.90
35563;DHT22;21665;40.108;18.302;2023-12-07T05:57:08;8.20;99.90
35563;DHT22;21665;40.108;18.302;2023-12-07T05:59:37;8.20;99.90
35563;DHT22;21665;40.108;18.302;2023-12-07T06:02:08;8.20;99.90
35563;DHT22;21665;40.108;18.302;2023-12-07T06:04:34;8.10;99.90
35563;DHT22;21665;40.108;18.302;2023-12-07T06:07:01;8.10;99.90
35563;DHT22;21665;40.108;18.302;2023-12-07T06:09:28;8.10;99.90
35563;DHT22;21665;40.108;18.302;2023-12-07T06:11:55;8.00;99.90
35563;DHT22;21665;40.108;18.302;2023-12-07T06:14:21;8.00;99.90
35563;DHT22;21665;40.108;18.302;2023-12-07T06:16:49;7.90;99.90
35563;DHT22;21665;40.108;18.302;2023-12-07T06:19:15;7.90;99.90
35563;DHT22;21665;40.108;18.302;2023-12-07T06:21:45;7.90;99.90
35563;DHT22;21665;40.108;18.302;2023-12-07T06:24:16;7.80;99.90
35563;DHT22;21665;40.108;18.302;2023-12-07T06:26:43;7.80;99.90
35563;DHT22;21665;40.108;18.302;2023-12-07T06:29:09;7.80;99.90
35563;DHT22;21665;40.108;18.302;2023-12-07T06:31:35;7.80;99.90
35563;DHT22;21665;40.108;18.302;2023-12-07T06:34:02;7.80;99.90
35563;DHT22;21665;40.108;18.302;2023-12-07T06:36:28;7.90;99.90
35563;DHT22;21665;40.108;18.302;2023-12-07T06:38:54;7.90;99.90
35563;DHT22;21665;40.108;18.302;2023-12-07T06:41:21;8.00;99.90
35563;DHT22;21665;40.108;18.302;2023-12-07T06:43:47;8.00;99.90
35563;DHT22;21665;40.108;18.302;2023-12-07T06:46:13;8.00;99.90
35563;DHT22;21665;40.108;18.302;2023-12-07T06:48:41;8.00;99.90
35563;DHT22;21665;40.108;18.302;2023-12-07T06:51:07;8.10;99.90
35563;DHT22;21665;40.108;18.302;2023-12-07T06:53:34;8.20;99.90
35563;DHT22;21665;40.108;18.302;2023-12-07T06:56:00;8.10;99.90
35563;DHT22;21665;40.108;18.302;2023-12-07T06:58:26;8.10;99.90
35563;DHT22;21665;40.108;18.302;2023-12-07T07:00:53;8.20;99.90
35563;DHT22;21665;40.108;18.302;2023-12-07T07:03:19;8.20;99.90
35563;DHT22;21665;40.108;18.302;2023-12-07T07:05:46;8.40;99.90
35563;DHT22;21665;40.108;18.302;2023-12-07T07:08:12;8.70;99.90
35563;DHT22;21665;40.108;18.302;2023-12-07T07:10:39;9.10;99.90
35563;DHT22;21665;40.108;18.302;2023-12-07T07:13:06;9.50;99.90
35563;DHT22;21665;40.108;18.302;2023-12-07T07:15:32;9.60;99.90
35563;DHT22;21665;40.108;18.302;2023-12-07T07:18:00;9.80;99.90
35563;DHT22;21665;40.108;18.302;2023-12-07T07:20:27;10.10;99.90
35563;DHT22;21665;40.108;18.302;2023-12-07T07:22:53;10.30;99.90
35563;DHT22;21665;40.108;18.302;2023-12-07T07:25:20;10.40;99.90
35563;DHT22;21665;40.108;18.302;2023-12-07T07:27:46;10.70;99.90
35563;DHT22;21665;40.108;18.302;2023-12-07T07:30:12;10.90;99.90
35563;DHT22;21665;40.108;18.302;2023-12-07T07:32:39;11.10;99.90
35563;DHT22;21665;40.108;18.302;2023-12-07T07:35:06;11.30;99.90
35563;DHT22;21665;40.108;18.302;2023-12-07T07:37:33;11.40;99.90
35563;DHT22;21665;40.108;18.302;2023-12-07T07:40:00;11.30;99.90
35563;DHT22;21665;40.108;18.302;2023-12-07T07:42:26;11.20;99.90
35563;DHT22;21665;40.108;18.302;2023-12-07T07:44:53;11.20;99.90
35563;DHT22;21665;40.108;18.302;2023-12-07T07:47:19;11.20;99.90
35563;DHT22;21665;40.108;18.302;2023-12-07T07:49:45;11.30;99.90
35563;DHT22;21665;40.108;18.302;2023-12-07T07:52:12;11.30;99.90
35563;DHT22;21665;40.108;18.302;2023-12-07T07:54:42;11.40;99.90
35563;DHT22;21665;40.108;18.302;2023-12-07T07:57:09;11.60;99.90
35563;DHT22;21665;40.108;18.302;2023-12-07T07:59:35;11.60;99.90
35563;DHT22;21665;40.108;18.302;2023-12-07T08:02:02;11.70;99.90
35563;DHT22;21665;40.108;18.302;2023-12-07T08:04:28;11.80;99.90
35563;DHT22;21665;40.108;18.302;2023-12-07T08:06:54;11.80;99.90
35563;DHT22;21665;40.108;18.302;2023-12-07T08:09:21;11.80;99.90
35563;DHT22;21665;40.108;18.302;2023-12-07T08:11:47;11.80;99.90
35563;DHT22;21665;40.108;18.302;2023-12-07T08:14:13;11.70;99.90
35563;DHT22;21665;40.108;18.302;2023-12-07T08:16:44;11.70;99.90
35563;DHT22;21665;40.108;18.302;2023-12-07T08:19:13;11.80;99.90
35563;DHT22;21665;40.108;18.302;2023-12-07T08:21:39;11.80;99.90
35563;DHT22;21665;40.108;18.302;2023-12-07T08:24:06;11.90;99.90
35563;DHT22;21665;40.108;18.302;2023-12-07T08:26:32;12.10;99.90
35563;DHT22;21665;40.108;18.302;2023-12-07T08:28:59;12.20;99.90
35563;DHT22;21665;40.108;18.302;2023-12-07T08:31:25;12.20;99.90
35563;DHT22;21665;40.108;18.302;2023-12-07T08:33:52;12.20;99.90
35563;DHT22;21665;40.108;18.302;2023-12-07T08:36:18;12.30;99.90
35563;DHT22;21665;40.108;18.302;2023-12-07T08:38:44;12.30;99.90
35563;DHT22;21665;40.108;18.302;2023-12-07T08:41:11;12.40;99.90
35563;DHT22;21665;40.108;18.302;2023-12-07T08:43:37;12.40;99.90
35563;DHT22;21665;40.108;18.302;2023-12-07T08:46:03;12.20;99.90
35563;DHT22;21665;40.108;18.302;2023-12-07T08:48:30;12.20;99.90
35563;DHT22;21665;40.108;18.302;2023-12-07T08:50:56;12.00;99.90
35563;DHT22;21665;40.108;18.302;2023-12-07T08:53:23;11.90;99.90
35563;DHT22;21665;40.108;18.302;2023-12-07T08:55:49;11.90;99.90
35563;DHT22;21665;40.108;18.302;2023-12-07T08:58:15;12.10;99.90
35563;DHT22;21665;40.108;18.302;2023-12-07T09:00:41;12.30;99.90
35563;DHT22;21665;40.108;18.302;2023-12-07T09:03:08;12.40;99.90
35563;DHT22;21665;40.108;18.302;2023-12-07T09:05:34;12.50;99.90
35563;DHT22;21665;40.108;18.302;2023-12-07T09:08:01;12.60;99.90
35563;DHT22;21665;40.108;18.302;2023-12-07T09:10:27;12.80;99.90
35563;DHT22;21665;40.108;18.302;2023-12-07T09:12:54;12.80;99.90
35563;DHT22;21665;40.108;18.302;2023-12-07T09:15:20;12.80;99.90
35563;DHT22;21665;40.108;18.302;2023-12-07T09:17:47;12.70;99.90
35563;DHT22;21665;40.108;18.302;2023-12-07T09:20:16;12.80;99.90
35563;DHT22;21665;40.108;18.302;2023-12-07T09:22:44;12.80;99.90
35563;DHT22;21665;40.108;18.302;2023-12-07T09:25:12;12.80;99.90
35563;DHT22;21665;40.108;18.302;2023-12-07T09:27:41;12.80;99.90
35563;DHT22;21665;40.108;18.302;2023-12-07T09:30:08;12.70;99.90
35563;DHT22;21665;40.108;18.302;2023-12-07T09:32:40;12.80;99.90
35563;DHT22;21665;40.108;18.302;2023-12-07T09:35:09;12.80;99.90
35563;DHT22;21665;40.108;18.302;2023-12-07T09:37:41;13.00;99.90
35563;DHT22;21665;40.108;18.302;2023-12-07T09:40:12;13.20;99.90
35563;DHT22;21665;40.108;18.302;2023-12-07T09:42:44;13.20;99.90
35563;DHT22;21665;40.108;18.302;2023-12-07T09:45:11;13.20;99.90
35563;DHT22;21665;40.108;18.302;2023-12-07T09:47:40;13.30;99.90
35563;DHT22;21665;40.108;18.302;2023-12-07T09:50:07;13.30;99.90
35563;DHT22;21665;40.108;18.302;2023-12-07T09:52:35;13.40;99.90
35563;DHT22;21665;40.108;18.302;2023-12-07T09:55:05;13.40;99.90
35563;DHT22;21665;40.108;18.302;2023-12-07T09:57:32;13.40;99.90
35563;DHT22;21665;40.108;18.302;2023-12-07T10:00:00;13.50;99.90
35563;DHT22;21665;40.108;18.302;2023-12-07T10:02:26;13.50;99.90
35563;DHT22;21665;40.108;18.302;2023-12-07T10:05:09;13.50;99.90
35563;DHT22;21665;40.108;18.302;2023-12-07T10:07:47;13.60;99.90
35563;DHT22;21665;40.108;18.302;2023-12-07T10:10:15;13.60;99.90
35563;DHT22;21665;40.108;18.302;2023-12-07T10:15:19;13.60;99.90
35563;DHT22;21665;40.108;18.302;2023-12-07T10:17:58;13.50;99.90
35563;DHT22;21665;40.108;18.302;2023-12-07T10:20:27;13.60;99.90
35563;DHT22;21665;40.108;18.302;2023-12-07T10:23:01;13.70;99.90
35563;DHT22;21665;40.108;18.302;2023-12-07T10:25:37;13.70;99.90
35563;DHT22;21665;40.108;18.302;2023-12-07T10:28:04;13.70;99.90
35563;DHT22;21665;40.108;18.302;2023-12-07T10:30:34;13.60;99.90
35563;DHT22;21665;40.108;18.302;2023-12-07T10:33:06;13.60;99.90
35563;DHT22;21665;40.108;18.302;2023-12-07T10:35:39;13.60;99.90
35563;DHT22;21665;40.108;18.302;2023-12-07T10:38:07;13.40;99.90
35563;DHT22;21665;40.108;18.302;2023-12-07T10:40:33;13.50;99.90
35563;DHT22;21665;40.108;18.302;2023-12-07T10:43:07;13.60;99.90
35563;DHT22;21665;40.108;18.302;2023-12-07T10:45:34;13.70;99.90
35563;DHT22;21665;40.108;18.302;2023-12-07T10:48:05;13.50;99.90
35563;DHT22;21665;40.108;18.302;2023-12-07T10:50:36;13.50;99.90
35563;DHT22;21665;40.108;18.302;2023-12-07T10:53:27;13.60;99.90
35563;DHT22;21665;40.108;18.302;2023-12-07T10:55:57;13.60;99.90
35563;DHT22;21665;40.108;18.302;2023-12-07T10:58:25;13.80;99.90
35563;DHT22;21665;40.108;18.302;2023-12-07T11:00:54;13.90;99.90
35563;DHT22;21665;40.108;18.302;2023-12-07T11:03:21;14.10;99.90
35563;DHT22;21665;40.108;18.302;2023-12-07T11:05:49;14.10;99.90
35563;DHT22;21665;40.108;18.302;2023-12-07T11:08:41;14.10;99.90
35563;DHT22;21665;40.108;18.302;2023-12-07T11:11:26;14.20;99.90
35563;DHT22;21665;40.108;18.302;2023-12-07T11:14:06;14.40;99.90
35563;DHT22;21665;40.108;18.302;2023-12-07T11:16:36;14.40;99.90
35563;DHT22;21665;40.108;18.302;2023-12-07T11:19:04;14.40;99.90
35563;DHT22;21665;40.108;18.302;2023-12-07T11:21:34;14.40;99.90
35563;DHT22;21665;40.108;18.302;2023-12-07T11:24:01;14.50;99.90
35563;DHT22;21665;40.108;18.302;2023-12-07T11:26:28;14.50;99.90
35563;DHT22;21665;40.108;18.302;2023-12-07T11:28:55;14.70;99.90
35563;DHT22;21665;40.108;18.302;2023-12-07T11:31:22;14.80;99.90
35563;DHT22;21665;40.108;18.302;2023-12-07T11:33:49;15.00;99.90
35563;DHT22;21665;40.108;18.302;2023-12-07T11:36:16;15.00;99.90
35563;DHT22;21665;40.108;18.302;2023-12-07T11:41:33;14.80;99.90
35563;DHT22;21665;40.108;18.302;2023-12-07T11:44:00;14.90;99.90
35563;DHT22;21665;40.108;18.302;2023-12-07T11:46:27;15.00;99.90
35563;DHT22;21665;40.108;18.302;2023-12-07T11:48:57;14.90;99.90
35563;DHT22;21665;40.108;18.302;2023-12-07T11:51:25;14.70;99.90
35563;DHT22;21665;40.108;18.302;2023-12-07T11:53:52;14.70;99.90
35563;DHT22;21665;40.108;18.302;2023-12-07T11:56:19;14.40;99.90
35563;DHT22;21665;40.108;18.302;2023-12-07T11:58:47;14.10;99.90
35563;DHT22;21665;40.108;18.302;2023-12-07T12:01:16;14.00;99.90
35563;DHT22;21665;40.108;18.302;2023-12-07T12:03:43;13.90;99.90
35563;DHT22;21665;40.108;18.302;2023-12-07T12:06:09;14.00;99.90
35563;DHT22;21665;40.108;18.302;2023-12-07T12:08:40;14.20;99.90
35563;DHT22;21665;40.108;18.302;2023-12-07T12:11:07;14.40;99.90
35563;DHT22;21665;40.108;18.302;2023-12-07T12:13:35;14.40;99.90
35563;DHT22;21665;40.108;18.302;2023-12-07T12:16:02;14.50;99.90
35563;DHT22;21665;40.108;18.302;2023-12-07T12:18:29;14.70;99.90
35563;DHT22;21665;40.108;18.302;2023-12-07T12:20:55;14.90;99.90
35563;DHT22;21665;40.108;18.302;2023-12-07T12:23:23;14.90;99.90
35563;DHT22;21665;40.108;18.302;2023-12-07T12:25:50;14.90;99.90
35563;DHT22;21665;40.108;18.302;2023-12-07T12:28:17;14.80;99.90
35563;DHT22;21665;40.108;18.302;2023-12-07T12:30:45;14.40;99.90
35563;DHT22;21665;40.108;18.302;2023-12-07T12:33:13;13.90;99.90
35563;DHT22;21665;40.108;18.302;2023-12-07T12:35:40;13.60;99.90
35563;DHT22;21665;40.108;18.302;2023-12-07T12:38:10;13.50;99.90
35563;DHT22;21665;40.108;18.302;2023-12-07T12:40:38;13.40;99.90
35563;DHT22;21665;40.108;18.302;2023-12-07T12:43:04;13.40;99.90
35563;DHT22;21665;40.108;18.302;2023-12-07T12:45:32;13.40;99.90
35563;DHT22;21665;40.108;18.302;2023-12-07T12:47:58;13.40;99.90
35563;DHT22;21665;40.108;18.302;2023-12-07T12:50:39;13.60;99.90
35563;DHT22;21665;40.108;18.302;2023-12-07T12:53:07;13.60;99.90
35563;DHT22;21665;40.108;18.302;2023-12-07T12:55:38;13.60;99.90
35563;DHT22;21665;40.108;18.302;2023-12-07T12:58:06;13.70;99.90
35563;DHT22;21665;40.108;18.302;2023-12-07T13:00:34;13.60;99.90
35563;DHT22;21665;40.108;18.302;2023-12-07T13:03:05;13.40;99.90
35563;DHT22;21665;40.108;18.302;2023-12-07T13:05:32;13.30;99.90
35563;DHT22;21665;40.108;18.302;2023-12-07T13:08:01;13.20;99.90
35563;DHT22;21665;40.108;18.302;2023-12-07T13:10:28;13.10;99.90
35563;DHT22;21665;40.108;18.302;2023-12-07T13:12:54;12.90;99.90
35563;DHT22;21665;40.108;18.302;2023-12-07T13:15:22;12.90;99.90
35563;DHT22;21665;40.108;18.302;2023-12-07T13:17:49;13.00;99.90
35563;DHT22;21665;40.108;18.302;2023-12-07T13:20:17;13.00;99.90
35563;DHT22;21665;40.108;18.302;2023-12-07T13:22:43;13.00;99.90
35563;DHT22;21665;40.108;18.302;2023-12-07T13:25:10;13.10;99.90
35563;DHT22;21665;40.108;18.302;2023-12-07T13:27:38;13.10;99.90
35563;DHT22;21665;40.108;18.302;2023-12-07T13:30:05;13.20;99.90
35563;DHT22;21665;40.108;18.302;2023-12-07T13:32:36;13.10;99.90
35563;DHT22;21665;40.108;18.302;2023-12-07T13:35:06;13.00;99.90
35563;DHT22;21665;40.108;18.302;2023-12-07T13:37:34;13.00;99.90
35563;DHT22;21665;40.108;18.302;2023-12-07T13:40:00;12.90;99.90
35563;DHT22;21665;40.108;18.302;2023-12-07T13:42:31;12.80;99.90
35563;DHT22;21665;40.108;18.302;2023-12-07T13:44:58;12.80;99.90
35563;DHT22;21665;40.108;18.302;2023-12-07T13:47:27;12.70;99.90
35563;DHT22;21665;40.108;18.302;2023-12-07T13:50:04;12.70;99.90
35563;DHT22;21665;40.108;18.302;2023-12-07T13:52:31;12.70;99.90
35563;DHT22;21665;40.108;18.302;2023-12-07T13:54:58;12.70;99.90
35563;DHT22;21665;40.108;18.302;2023-12-07T13:57:24;12.70;99.90
35563;DHT22;21665;40.108;18.302;2023-12-07T13:59:51;12.70;99.90
35563;DHT22;21665;40.108;18.302;2023-12-07T14:02:18;12.60;99.90
35563;DHT22;21665;40.108;18.302;2023-12-07T14:04:45;12.60;99.90
35563;DHT22;21665;40.108;18.302;2023-12-07T14:07:14;12.50;99.90
35563;DHT22;21665;40.108;18.302;2023-12-07T14:09:44;12.40;99.90
35563;DHT22;21665;40.108;18.302;2023-12-07T14:12:12;12.40;99.90
35563;DHT22;21665;40.108;18.302;2023-12-07T14:14:45;12.40;99.90
35563;DHT22;21665;40.108;18.302;2023-12-07T14:17:16;12.40;99.90
35563;DHT22;21665;40.108;18.302;2023-12-07T14:19:44;12.30;99.90
35563;DHT22;21665;40.108;18.302;2023-12-07T14:22:10;12.30;99.90
35563;DHT22;21665;40.108;18.302;2023-12-07T14:24:37;12.30;99.90
35563;DHT22;21665;40.108;18.302;2023-12-07T14:27:05;12.30;99.90
35563;DHT22;21665;40.108;18.302;2023-12-07T14:29:32;12.30;99.90
35563;DHT22;21665;40.108;18.302;2023-12-07T14:31:59;12.30;99.90
35563;DHT22;21665;40.108;18.302;2023-12-07T14:34:26;12.20;99.90
35563;DHT22;21665;40.108;18.302;2023-12-07T14:36:53;12.10;99.90
35563;DHT22;21665;40.108;18.302;2023-12-07T14:39:20;12.10;99.90
35563;DHT22;21665;40.108;18.302;2023-12-07T14:41:48;12.10;99.90
35563;DHT22;21665;40.108;18.302;2023-12-07T14:44:15;12.30;99.90
35563;DHT22;21665;40.108;18.302;2023-12-07T14:46:46;12.20;99.90
35563;DHT22;21665;40.108;18.302;2023-12-07T14:49:13;12.30;99.90
35563;DHT22;21665;40.108;18.302;2023-12-07T14:51:40;12.30;99.90
35563;DHT22;21665;40.108;18.302;2023-12-07T14:54:07;12.20;99.90
35563;DHT22;21665;40.108;18.302;2023-12-07T14:56:33;12.20;99.90
35563;DHT22;21665;40.108;18.302;2023-12-07T14:59:00;12.10;99.90
35563;DHT22;21665;40.108;18.302;2023-12-07T15:01:27;12.10;99.90
35563;DHT22;21665;40.108;18.302;2023-12-07T15:03:54;12.00;99.90
35563;DHT22;21665;40.108;18.302;2023-12-07T15:06:20;12.00;99.90
35563;DHT22;21665;40.108;18.302;2023-12-07T15:08:47;11.90;99.90
35563;DHT22;21665;40.108;18.302;2023-12-07T15:11:14;11.90;99.90
35563;DHT22;21665;40.108;18.302;2023-12-07T15:13:40;11.80;99.90
35563;DHT22;21665;40.108;18.302;2023-12-07T15:16:08;11.70;99.90
35563;DHT22;21665;40.108;18.302;2023-12-07T15:18:34;11.60;99.90
35563;DHT22;21665;40.108;18.302;2023-12-07T15:21:03;11.60;99.90
35563;DHT22;21665;40.108;18.302;2023-12-07T15:23:29;11.50;99.90
35563;DHT22;21665;40.108;18.302;2023-12-07T15:25:58;11.40;99.90
35563;DHT22;21665;40.108;18.302;2023-12-07T15:47:46;10.90;99.90
35563;DHT22;21665;40.108;18.302;2023-12-07T15:50:13;10.90;99.90
35563;DHT22;21665;40.108;18.302;2023-12-07T15:52:39;10.80;99.90
35563;DHT22;21665;40.108;18.302;2023-12-07T15:55:05;10.80;99.90
35563;DHT22;21665;40.108;18.302;2023-12-07T15:57:32;10.80;99.90